Time;durP1;ratioP1;P1;durP2;ratioP2;P2;SDS_P1;SDS_P2;PMS_P1;PMS_P2;Temp;Humidity;BMP_temperature;BMP_pressure;BME280_temperature;BME280_humidity;BME280_pressure;Samples;Min_cycle;Max_cycle;Signal;HPM_P1;HPM_P2
2023/03/17 00:00:13;;;;;;;2.20;2.00;;;8.00;81.70;;;;;;5091059;28;20519;-70
2023/03/17 00:02:44;;;;;;;3.03;2.73;;;8.10;80.80;;;;;;5090784;28;20494;-71
2023/03/17 00:05:22;;;;;;;3.53;2.60;;;8.00;81.80;;;;;;5090867;28;20441;-71
2023/03/17 00:07:50;;;;;;;2.30;2.20;;;8.00;81.00;;;;;;5090891;28;20489;-71
2023/03/17 00:10:20;;;;;;;4.00;2.73;;;8.00;80.30;;;;;;5090712;28;21013;-71
2023/03/17 00:12:47;;;;;;;2.60;2.30;;;8.00;79.30;;;;;;5090683;28;20421;-71
2023/03/17 00:15:13;;;;;;;2.50;2.30;;;8.00;80.30;;;;;;5089124;28;20428;-71
2023/03/17 00:17:41;;;;;;;3.40;3.10;;;8.00;80.50;;;;;;5090550;28;20428;-70
2023/03/17 00:20:14;;;;;;;2.60;2.30;;;7.90;80.30;;;;;;5088880;28;20437;-71
2023/03/17 00:22:40;;;;;;;2.40;2.20;;;7.90;80.50;;;;;;5088898;28;21283;-70
2023/03/17 00:25:23;;;;;;;2.50;2.30;;;7.80;80.80;;;;;;5072534;28;20441;-70
2023/03/17 00:27:49;;;;;;;4.00;2.23;;;7.80;80.80;;;;;;5090730;28;20190;-71
2023/03/17 00:30:15;;;;;;;4.50;2.90;;;7.80;80.30;;;;;;5090698;28;20909;-70
2023/03/17 00:32:44;;;;;;;2.97;2.30;;;7.70;80.80;;;;;;5090728;28;20805;-70
2023/03/17 00:35:31;;;;;;;3.73;2.70;;;7.80;80.10;;;;;;5089030;28;20436;-70
2023/03/17 00:37:57;;;;;;;4.70;2.50;;;7.90;80.10;;;;;;5090586;28;20497;-70
2023/03/17 00:40:25;;;;;;;2.90;2.17;;;7.80;80.00;;;;;;5088936;28;20444;-70
2023/03/17 00:42:51;;;;;;;2.50;2.10;;;7.90;79.20;;;;;;5089027;28;20468;-70
2023/03/17 00:45:20;;;;;;;2.70;2.10;;;7.90;79.30;;;;;;5090665;28;20519;-70
2023/03/17 00:47:47;;;;;;;2.50;2.30;;;8.00;78.40;;;;;;5090421;28;20412;-71
2023/03/17 00:50:16;;;;;;;2.37;2.10;;;8.00;78.30;;;;;;5090536;28;20432;-70
2023/03/17 00:52:43;;;;;;;2.47;2.27;;;8.10;75.90;;;;;;5090467;28;20427;-71
2023/03/17 00:55:10;;;;;;;4.87;2.50;;;8.20;76.20;;;;;;5088410;28;20945;-71
2023/03/17 00:57:38;;;;;;;5.53;2.77;;;8.30;76.10;;;;;;5089955;28;21291;-71
2023/03/17 01:00:05;;;;;;;3.60;2.07;;;8.30;75.40;;;;;;5090374;28;20882;-71
2023/03/17 01:02:31;;;;;;;3.83;2.20;;;8.40;74.50;;;;;;5090209;28;20452;-71
2023/03/17 01:04:57;;;;;;;4.67;2.13;;;8.50;75.60;;;;;;5089214;28;20461;-71
2023/03/17 01:07:23;;;;;;;3.00;1.70;;;8.50;73.00;;;;;;5090261;28;20412;-71
2023/03/17 01:09:49;;;;;;;1.93;1.83;;;8.50;75.80;;;;;;5088703;28;20502;-70
2023/03/17 01:12:14;;;;;;;2.10;1.90;;;8.50;74.20;;;;;;5088918;28;20189;-70
2023/03/17 01:14:40;;;;;;;2.07;1.77;;;8.50;72.40;;;;;;5090105;28;20429;-71
2023/03/17 01:17:14;;;;;;;2.43;2.23;;;8.50;73.90;;;;;;5090360;28;20565;-71
2023/03/17 01:19:40;;;;;;;7.80;2.67;;;8.60;72.10;;;;;;5090429;28;20204;-71
2023/03/17 01:22:06;;;;;;;3.60;2.20;;;8.50;76.20;;;;;;5088835;28;20452;-71
2023/03/17 01:24:32;;;;;;;3.50;2.67;;;8.60;72.10;;;;;;5090275;28;20170;-71
2023/03/17 01:26:57;;;;;;;5.63;3.37;;;8.50;74.40;;;;;;5090360;28;20530;-71
2023/03/17 01:29:23;;;;;;;7.30;4.40;;;8.50;77.20;;;;;;5090015;28;20681;-71
2023/03/17 01:31:49;;;;;;;6.40;5.40;;;8.30;80.60;;;;;;5089679;28;20183;-71
2023/03/17 01:34:14;;;;;;;11.03;5.90;;;7.90;88.00;;;;;;5088278;28;20208;-73
2023/03/17 01:36:40;;;;;;;4.30;3.00;;;7.60;90.50;;;;;;5089642;28;20227;-71
2023/03/17 01:39:06;;;;;;;3.53;3.23;;;7.40;86.40;;;;;;5089888;28;20217;-71
2023/03/17 01:41:36;;;;;;;3.07;2.23;;;7.60;83.70;;;;;;5088617;28;20412;-71
2023/03/17 01:44:02;;;;;;;3.07;2.20;;;7.80;76.30;;;;;;5088192;28;20178;-72
2023/03/17 01:46:32;;;;;;;2.53;2.33;;;8.30;71.80;;;;;;5088399;28;20440;-72
2023/03/17 01:49:03;;;;;;;2.77;2.57;;;8.50;71.40;;;;;;5089419;28;20424;-72
2023/03/17 01:51:38;;;;;;;5.37;4.10;;;8.60;72.70;;;;;;5089185;28;20404;-72
2023/03/17 01:54:10;;;;;;;6.67;4.93;;;8.50;75.10;;;;;;5089746;28;20783;-71
2023/03/17 01:56:39;;;;;;;7.33;5.87;;;8.30;82.90;;;;;;5088934;28;20411;-72
2023/03/17 01:59:09;;;;;;;8.10;6.40;;;7.80;88.90;;;;;;5088845;28;20420;-71
2023/03/17 02:01:39;;;;;;;6.93;5.93;;;7.20;92.60;;;;;;5088869;28;20412;-71
2023/03/17 02:04:07;;;;;;;8.97;6.40;;;6.90;95.00;;;;;;5088552;28;20513;-71
2023/03/17 02:06:34;;;;;;;8.30;6.37;;;6.70;96.60;;;;;;5088965;28;20412;-72
2023/03/17 02:09:00;;;;;;;7.30;5.70;;;6.60;97.10;;;;;;5088547;28;20412;-71
2023/03/17 02:11:27;;;;;;;6.17;5.30;;;6.40;99.10;;;;;;5087158;28;20423;-71
2023/03/17 02:13:52;;;;;;;9.23;5.60;;;6.30;99.90;;;;;;5088992;28;20523;-71
2023/03/17 02:16:19;;;;;;;9.67;6.27;;;6.20;99.90;;;;;;5087332;28;20519;-72
2023/03/17 02:18:45;;;;;;;8.47;6.70;;;6.10;99.90;;;;;;5087099;28;20182;-71
2023/03/17 02:21:32;;;;;;;8.23;6.57;;;5.90;99.90;;;;;;5088586;28;20420;-71
2023/03/17 02:24:01;;;;;;;8.27;6.20;;;5.90;99.90;;;;;;5088767;28;20186;-72
2023/03/17 02:26:30;;;;;;;9.50;6.73;;;5.70;99.90;;;;;;5087089;28;20426;-71
2023/03/17 02:28:55;;;;;;;9.40;6.53;;;5.80;99.90;;;;;;5088512;28;20423;-72
2023/03/17 02:31:24;;;;;;;8.87;6.30;;;5.80;99.90;;;;;;5087004;28;20838;-72
2023/03/17 02:33:51;;;;;;;10.10;6.20;;;5.70;99.90;;;;;;5087092;28;20687;-72
2023/03/17 02:36:16;;;;;;;7.67;5.57;;;5.70;99.90;;;;;;5088599;28;20408;-72
2023/03/17 02:38:42;;;;;;;12.03;5.83;;;5.70;99.90;;;;;;5088239;28;20523;-71
2023/03/17 02:41:08;;;;;;;9.47;6.93;;;5.60;99.90;;;;;;5088463;28;20432;-71
2023/03/17 02:43:34;;;;;;;9.60;6.50;;;5.50;99.90;;;;;;5087115;28;20225;-72
2023/03/17 02:46:00;;;;;;;11.90;6.73;;;5.50;99.90;;;;;;5088507;28;20991;-72
2023/03/17 02:48:26;;;;;;;15.30;6.33;;;5.50;99.90;;;;;;5086913;28;20435;-71
2023/03/17 02:50:52;;;;;;;8.93;5.90;;;5.40;99.90;;;;;;5088163;28;20443;-72
2023/03/17 02:53:17;;;;;;;9.90;6.83;;;5.40;99.90;;;;;;5087182;28;20183;-72
2023/03/17 02:55:43;;;;;;;8.80;6.47;;;5.30;99.90;;;;;;5088351;28;20190;-71
2023/03/17 02:58:09;;;;;;;9.00;6.37;;;5.30;99.90;;;;;;5088434;28;20182;-71
2023/03/17 03:00:35;;;;;;;8.00;5.67;;;5.30;99.90;;;;;;5088220;28;20232;-71
2023/03/17 03:03:01;;;;;;;9.30;6.30;;;5.20;99.90;;;;;;5088163;28;20516;-71
2023/03/17 03:05:27;;;;;;;9.67;6.13;;;5.20;99.90;;;;;;5088335;28;20185;-71
2023/03/17 03:07:53;;;;;;;7.50;5.23;;;5.20;99.90;;;;;;5086489;28;20940;-71
2023/03/17 03:10:20;;;;;;;10.80;6.20;;;5.10;99.90;;;;;;5088089;28;20440;-71
2023/03/17 03:12:46;;;;;;;10.98;6.13;;;5.10;99.90;;;;;;5086723;28;20199;-71
2023/03/17 03:15:12;;;;;;;7.60;5.83;;;5.10;99.90;;;;;;5088331;28;20588;-71
2023/03/17 03:17:37;;;;;;;9.43;6.13;;;5.10;99.90;;;;;;5086659;28;20197;-71
2023/03/17 03:20:04;;;;;;;7.70;5.80;;;5.10;99.90;;;;;;5090702;28;20754;-71
2023/03/17 03:22:29;;;;;;;12.03;5.40;;;5.10;99.90;;;;;;5090616;28;20262;-71
2023/03/17 03:24:55;;;;;;;8.33;6.33;;;5.10;99.90;;;;;;5092192;28;20420;-71
2023/03/17 03:27:21;;;;;;;10.70;5.53;;;5.10;99.90;;;;;;5092120;28;20216;-71
2023/03/17 03:29:46;;;;;;;13.43;5.10;;;5.10;99.90;;;;;;5092087;28;20595;-71
2023/03/17 03:32:12;;;;;;;6.03;5.30;;;5.10;99.90;;;;;;5092188;28;20281;-71
2023/03/17 03:34:37;;;;;;;17.10;8.33;;;5.10;99.90;;;;;;5090770;28;20579;-71
2023/03/17 03:37:03;;;;;;;8.70;6.17;;;5.10;99.90;;;;;;5092122;28;20206;-71
2023/03/17 03:39:29;;;;;;;8.80;4.20;;;5.20;99.90;;;;;;5092298;28;20237;-71
2023/03/17 03:41:57;;;;;;;5.83;3.47;;;5.60;99.90;;;;;;5090793;28;20224;-71
2023/03/17 03:44:23;;;;;;;4.23;3.83;;;6.10;98.50;;;;;;5092538;28;20185;-71
2023/03/17 03:46:49;;;;;;;5.13;3.57;;;6.50;96.80;;;;;;5092177;28;20443;-71
2023/03/17 03:49:15;;;;;;;4.40;3.50;;;6.70;96.50;;;;;;5092110;28;20455;-71
2023/03/17 03:51:40;;;;;;;7.77;4.97;;;6.80;95.40;;;;;;5092077;28;20415;-71
2023/03/17 03:54:06;;;;;;;8.00;4.53;;;6.70;97.90;;;;;;5090432;28;20915;-71
2023/03/17 03:56:32;;;;;;;4.37;3.50;;;6.50;99.60;;;;;;5091765;28;20190;-72
2023/03/17 03:58:58;;;;;;;4.30;3.10;;;6.70;95.60;;;;;;5091330;28;20186;-71
2023/03/17 04:01:24;;;;;;;6.53;4.67;;;6.80;95.20;;;;;;5089988;28;20520;-72
2023/03/17 04:03:50;;;;;;;8.60;4.33;;;6.60;97.80;;;;;;5091271;28;21031;-71
2023/03/17 04:06:16;;;;;;;8.40;5.00;;;6.40;99.40;;;;;;5091512;28;20193;-71
2023/03/17 04:08:44;;;;;;;12.13;6.03;;;6.20;99.90;;;;;;5091451;28;20179;-72
2023/03/17 04:11:10;;;;;;;7.03;5.70;;;5.80;99.90;;;;;;5091418;28;20425;-71
2023/03/17 04:13:36;;;;;;;9.30;6.13;;;5.60;99.90;;;;;;5089977;28;20485;-71
2023/03/17 04:16:02;;;;;;;6.80;5.40;;;5.40;99.90;;;;;;5091807;28;20845;-71
2023/03/17 04:18:27;;;;;;;7.53;5.70;;;5.20;99.90;;;;;;5091836;28;20431;-71
2023/03/17 04:20:53;;;;;;;6.57;5.00;;;5.20;99.90;;;;;;5091518;28;20214;-71
2023/03/17 04:23:18;;;;;;;15.13;6.73;;;5.10;99.90;;;;;;5093153;28;20228;-71
2023/03/17 04:25:44;;;;;;;6.80;5.50;;;5.10;99.90;;;;;;5093149;28;20185;-71
2023/03/17 04:28:11;;;;;;;6.63;5.23;;;5.10;99.90;;;;;;5093456;28;20282;-70
2023/03/17 04:30:36;;;;;;;5.68;4.97;;;5.00;99.90;;;;;;5090468;28;20803;-71
2023/03/17 04:33:02;;;;;;;6.83;4.17;;;5.00;99.90;;;;;;5091585;28;20273;-70
2023/03/17 04:35:28;;;;;;;6.03;5.20;;;5.00;99.90;;;;;;5090361;28;20201;-71
2023/03/17 04:37:53;;;;;;;8.70;5.60;;;5.00;99.90;;;;;;5091128;28;20217;-71
2023/03/17 04:40:19;;;;;;;9.13;5.97;;;5.00;99.90;;;;;;5091343;28;20212;-71
2023/03/17 04:42:45;;;;;;;6.37;5.17;;;4.90;99.90;;;;;;5091567;28;20713;-72
2023/03/17 04:45:13;;;;;;;7.00;5.30;;;4.90;99.90;;;;;;5091614;28;20509;-72
2023/03/17 04:47:39;;;;;;;6.63;4.90;;;4.90;99.90;;;;;;5091662;28;20560;-72
2023/03/17 04:50:07;;;;;;;7.67;6.10;;;4.90;99.90;;;;;;5091375;28;20525;-71
2023/03/17 04:52:34;;;;;;;5.80;5.10;;;4.90;99.90;;;;;;5091296;28;20416;-71
2023/03/17 04:54:59;;;;;;;3.03;2.80;;;4.90;99.90;;;;;;5091319;28;20411;-70
2023/03/17 04:57:25;;;;;;;1.90;1.70;;;5.10;99.90;;;;;;5091357;28;20425;-70
2023/03/17 04:59:51;;;;;;;2.40;2.00;;;5.40;99.90;;;;;;5089829;28;20452;-71
2023/03/17 05:02:17;;;;;;;2.50;1.53;;;5.80;98.10;;;;;;5091345;28;20206;-72
2023/03/17 05:04:44;;;;;;;3.23;1.70;;;6.30;94.40;;;;;;5091216;28;20428;-72
2023/03/17 05:07:10;;;;;;;3.83;1.50;;;6.80;92.60;;;;;;5089449;28;20420;-73
2023/03/17 05:09:36;;;;;;;2.70;1.70;;;7.10;91.00;;;;;;5090162;28;20202;-72
2023/03/17 05:12:02;;;;;;;2.83;1.50;;;7.40;89.00;;;;;;5088739;28;20442;-72
2023/03/17 05:14:28;;;;;;;1.93;1.50;;;7.50;87.00;;;;;;5088765;28;20299;-71
2023/03/17 05:16:53;;;;;;;2.50;1.67;;;7.60;85.40;;;;;;5088729;28;20432;-70
2023/03/17 05:19:19;;;;;;;3.63;1.73;;;7.70;86.60;;;;;;5090199;28;20819;-71
2023/03/17 05:21:46;;;;;;;4.67;1.10;;;7.70;83.70;;;;;;5088235;28;20197;-71
2023/03/17 05:24:12;;;;;;;2.03;1.80;;;7.90;83.10;;;;;;5088156;28;20273;-70
2023/03/17 05:26:39;;;;;;;2.40;2.20;;;8.00;81.90;;;;;;5070603;28;20552;-70
2023/03/17 05:29:05;;;;;;;3.20;2.90;;;8.30;78.10;;;;;;5088796;28;20435;-70
2023/03/17 05:31:31;;;;;;;3.13;2.30;;;8.30;79.60;;;;;;5088802;28;20413;-70
2023/03/17 05:33:57;;;;;;;2.07;1.60;;;8.20;79.00;;;;;;5088656;28;20415;-70
2023/03/17 05:36:23;;;;;;;2.87;1.60;;;8.30;77.90;;;;;;5088831;28;20421;-70
2023/03/17 05:38:49;;;;;;;1.53;1.37;;;8.40;77.40;;;;;;5087268;28;20444;-70
2023/03/17 05:41:15;;;;;;;1.33;0.93;;;8.50;75.20;;;;;;5088507;28;20178;-69
2023/03/17 05:43:40;;;;;;;1.53;0.97;;;8.50;75.60;;;;;;5088333;28;21359;-70
2023/03/17 05:46:07;;;;;;;4.00;1.00;;;8.50;77.40;;;;;;5088672;28;20428;-69
2023/03/17 05:48:32;;;;;;;1.00;0.87;;;8.50;75.90;;;;;;5087360;28;20171;-70
2023/03/17 05:50:59;;;;;;;2.07;0.97;;;8.70;74.50;;;;;;5088536;28;20849;-70
2023/03/17 05:53:24;;;;;;;1.20;0.70;;;8.70;73.30;;;;;;5087244;28;20175;-69
2023/03/17 05:55:51;;;;;;;1.10;1.00;;;8.90;72.20;;;;;;5088500;28;20466;-70
2023/03/17 05:58:17;;;;;;;1.40;1.00;;;9.00;72.10;;;;;;5088431;28;20232;-70
2023/03/17 06:00:42;;;;;;;2.90;1.37;;;9.10;71.10;;;;;;5087013;28;20829;-70
2023/03/17 06:03:08;;;;;;;1.67;1.20;;;9.20;70.30;;;;;;5088427;28;20500;-70
2023/03/17 06:05:34;;;;;;;9.80;6.47;;;9.20;70.00;;;;;;5086944;28;20180;-70
2023/03/17 06:08:00;;;;;;;8.10;5.63;;;8.90;77.60;;;;;;5086757;28;20194;-70
2023/03/17 06:10:26;;;;;;;8.30;6.07;;;8.10;84.90;;;;;;5088298;28;20430;-70
2023/03/17 06:12:52;;;;;;;17.37;6.63;;;7.30;92.10;;;;;;5088285;28;20423;-70
2023/03/17 06:15:18;;;;;;;13.83;6.00;;;6.30;98.00;;;;;;5088304;28;20222;-70
2023/03/17 06:17:44;;;;;;;8.70;6.00;;;5.80;99.90;;;;;;5069704;28;20190;-70
2023/03/17 06:20:11;;;;;;;7.60;5.70;;;5.50;99.90;;;;;;5086266;28;20452;-69
2023/03/17 06:22:37;;;;;;;8.27;6.20;;;5.60;99.90;;;;;;5087897;28;20571;-70
2023/03/17 06:25:03;;;;;;;8.77;6.20;;;5.80;99.90;;;;;;5087914;28;20861;-69
2023/03/17 06:27:29;;;;;;;5.83;5.20;;;6.20;99.90;;;;;;5088035;28;20174;-69
2023/03/17 06:29:56;;;;;;;8.63;6.03;;;6.60;99.90;;;;;;5086498;28;20855;-70
2023/03/17 06:32:22;;;;;;;9.03;5.17;;;6.90;99.90;;;;;;5088200;28;20798;-70
2023/03/17 06:34:47;;;;;;;12.60;5.30;;;7.40;98.70;;;;;;5087971;28;20413;-71
2023/03/17 06:37:13;;;;;;;7.90;5.40;;;7.60;97.20;;;;;;5087995;28;20440;-70
2023/03/17 06:39:41;;;;;;;8.20;5.60;;;7.20;97.60;;;;;;5087921;28;20241;-70
2023/03/17 06:42:07;;;;;;;8.50;6.00;;;7.00;98.10;;;;;;5086440;28;20734;-70
2023/03/17 06:44:33;;;;;;;7.93;5.57;;;6.90;98.70;;;;;;5087958;28;20417;-70
2023/03/17 06:46:58;;;;;;;6.07;4.90;;;7.00;99.30;;;;;;5087842;28;20529;-70
2023/03/17 06:49:24;;;;;;;9.93;5.63;;;7.10;98.10;;;;;;5087953;28;20523;-70
2023/03/17 06:51:50;;;;;;;14.90;7.80;;;7.30;99.50;;;;;;5088115;28;20182;-70
2023/03/17 06:54:17;;;;;;;9.13;6.63;;;7.70;97.50;;;;;;5089077;28;20951;-70
2023/03/17 06:56:43;;;;;;;9.60;7.10;;;8.10;97.60;;;;;;5091904;28;20408;-70
2023/03/17 06:59:10;;;;;;;19.87;8.67;;;8.00;96.20;;;;;;5090394;28;20468;-70
2023/03/17 07:01:37;;;;;;;12.70;8.37;;;8.00;97.10;;;;;;5091841;28;20999;-70
2023/03/17 07:04:02;;;;;;;10.97;7.50;;;8.10;96.90;;;;;;5091852;28;20467;-70
2023/03/17 07:06:28;;;;;;;10.00;6.17;;;8.30;97.00;;;;;;5090203;28;20435;-71
2023/03/17 07:08:54;;;;;;;11.00;5.67;;;8.40;96.70;;;;;;5091203;28;20319;-71
2023/03/17 07:11:22;;;;;;;7.77;5.47;;;8.50;96.30;;;;;;5089743;28;20174;-72
2023/03/17 07:13:48;;;;;;;13.27;4.97;;;8.90;95.50;;;;;;5090847;28;20701;-70
2023/03/17 07:16:15;;;;;;;7.17;5.20;;;9.10;95.10;;;;;;5091094;28;20466;-71
2023/03/17 07:18:42;;;;;;;9.90;6.30;;;9.10;94.90;;;;;;5091004;28;20509;-71
2023/03/17 07:21:08;;;;;;;10.40;5.87;;;9.20;94.70;;;;;;5090903;28;20576;-70
2023/03/17 07:23:34;;;;;;;8.10;4.77;;;9.50;93.40;;;;;;5091048;28;20474;-71
2023/03/17 07:26:00;;;;;;;8.53;4.50;;;9.60;92.70;;;;;;5090898;28;20409;-70
2023/03/17 07:28:26;;;;;;;10.83;5.87;;;9.30;93.10;;;;;;5090952;28;20890;-71
2023/03/17 07:30:51;;;;;;;5.10;4.13;;;9.30;93.30;;;;;;5089192;28;20965;-71
2023/03/17 07:33:20;;;;;;;6.13;4.80;;;9.20;93.10;;;;;;5090793;28;20630;-71
2023/03/17 07:35:47;;;;;;;13.40;5.30;;;9.40;92.70;;;;;;5090644;28;20680;-71
2023/03/17 07:38:14;;;;;;;6.60;5.47;;;9.30;93.60;;;;;;5088838;28;20530;-70
2023/03/17 07:40:41;;;;;;;5.97;4.50;;;9.40;93.80;;;;;;5090389;28;20436;-71
2023/03/17 07:43:07;;;;;;;6.10;5.27;;;9.50;93.30;;;;;;5088777;28;21082;-71
2023/03/17 07:45:34;;;;;;;6.33;5.40;;;9.60;93.50;;;;;;5088828;28;20439;-70
2023/03/17 07:48:04;;;;;;;10.80;5.67;;;9.70;93.90;;;;;;5090482;28;20416;-70
2023/03/17 07:50:34;;;;;;;8.93;5.80;;;10.10;93.50;;;;;;5090381;28;21287;-71
2023/03/17 07:52:59;;;;;;;8.17;6.47;;;10.30;92.70;;;;;;5090437;28;20409;-71
2023/03/17 07:55:25;;;;;;;7.93;5.70;;;10.60;92.20;;;;;;5089228;28;20416;-70
2023/03/17 07:57:51;;;;;;;6.07;5.07;;;10.70;91.50;;;;;;5090969;28;20208;-71
2023/03/17 08:00:18;;;;;;;6.50;4.97;;;10.70;90.90;;;;;;5091003;28;20440;-71
2023/03/17 08:02:45;;;;;;;9.30;5.20;;;10.90;91.10;;;;;;5090801;28;20460;-71
2023/03/17 08:05:11;;;;;;;6.30;4.60;;;10.80;90.50;;;;;;5090547;28;20923;-71
2023/03/17 08:07:37;;;;;;;6.70;5.03;;;11.10;90.00;;;;;;5090864;28;20471;-71
2023/03/17 08:10:04;;;;;;;5.90;4.33;;;11.10;90.40;;;;;;5089069;28;20200;-70
2023/03/17 08:12:30;;;;;;;5.63;3.77;;;11.10;90.10;;;;;;5090481;28;20417;-71
2023/03/17 08:14:56;;;;;;;6.93;4.80;;;11.00;90.20;;;;;;5090282;28;20921;-71
2023/03/17 08:17:25;;;;;;;8.00;4.50;;;11.10;90.80;;;;;;5090194;28;20410;-71
2023/03/17 08:19:54;;;;;;;10.50;4.90;;;11.10;90.30;;;;;;5089918;28;20887;-71
2023/03/17 08:22:21;;;;;;;5.60;4.40;;;11.20;90.40;;;;;;5089836;28;21069;-70
2023/03/17 08:24:47;;;;;;;6.47;4.27;;;11.50;90.30;;;;;;5088046;28;20501;-71
2023/03/17 08:27:14;;;;;;;4.97;3.60;;;11.70;89.40;;;;;;5089434;28;20423;-71
2023/03/17 08:29:39;;;;;;;6.40;4.13;;;11.90;86.30;;;;;;5087664;28;20437;-71
2023/03/17 08:32:05;;;;;;;7.40;3.70;;;12.00;86.70;;;;;;5089545;28;20432;-72
2023/03/17 08:34:31;;;;;;;8.60;4.20;;;12.20;84.80;;;;;;5089244;28;20174;-71
2023/03/17 08:36:57;;;;;;;5.47;3.60;;;12.50;84.40;;;;;;5089308;28;21120;-72
2023/03/17 08:39:23;;;;;;;5.57;4.40;;;12.70;84.00;;;;;;5089404;28;20240;-71
2023/03/17 08:41:49;;;;;;;5.10;3.90;;;13.00;82.90;;;;;;5087436;28;20191;-71
2023/03/17 08:44:15;;;;;;;6.53;4.80;;;13.20;84.40;;;;;;5087390;28;20517;-71
2023/03/17 08:46:41;;;;;;;6.50;4.23;;;13.40;83.80;;;;;;5089345;28;20522;-71
2023/03/17 08:49:08;;;;;;;6.90;4.60;;;13.40;84.60;;;;;;5089082;28;20725;-71
2023/03/17 08:51:36;;;;;;;6.00;4.50;;;13.40;82.70;;;;;;5087183;28;20427;-71
2023/03/17 08:54:02;;;;;;;7.10;4.60;;;13.60;81.90;;;;;;5088828;28;20457;-71
2023/03/17 08:56:28;;;;;;;7.50;5.17;;;13.50;81.20;;;;;;5088942;28;20419;-71
2023/03/17 08:58:54;;;;;;;8.80;5.20;;;13.40;82.10;;;;;;5088875;28;20425;-71
2023/03/17 09:01:21;;;;;;;9.47;5.80;;;13.40;82.60;;;;;;5088875;28;20184;-71
2023/03/17 09:03:48;;;;;;;8.63;5.23;;;13.40;82.90;;;;;;5088695;28;20461;-71
2023/03/17 09:06:14;;;;;;;5.70;5.10;;;13.50;85.00;;;;;;5088895;28;20841;-71
2023/03/17 09:08:43;;;;;;;8.50;4.73;;;13.80;84.30;;;;;;5088805;28;20431;-71
2023/03/17 09:11:15;;;;;;;7.13;4.63;;;14.10;82.20;;;;;;5070466;28;20812;-71
2023/03/17 09:13:41;;;;;;;6.83;4.50;;;14.40;80.50;;;;;;5088461;28;20416;-71
2023/03/17 09:16:07;;;;;;;7.47;4.40;;;14.70;78.70;;;;;;5088249;28;20434;-71
2023/03/17 09:18:33;;;;;;;7.57;5.23;;;14.80;78.10;;;;;;5088318;28;20182;-71
2023/03/17 09:21:01;;;;;;;8.47;5.23;;;15.30;77.90;;;;;;5086993;28;20470;-71
2023/03/17 09:23:27;;;;;;;11.33;4.63;;;15.80;76.60;;;;;;5088434;28;20966;-72
2023/03/17 09:25:52;;;;;;;6.77;4.00;;;16.00;75.40;;;;;;5088837;28;20413;-71
2023/03/17 09:28:18;;;;;;;9.63;4.50;;;16.30;73.40;;;;;;5088557;28;20516;-72
2023/03/17 09:30:44;;;;;;;13.03;4.70;;;16.50;71.80;;;;;;5088659;28;20198;-72
2023/03/17 09:33:11;;;;;;;6.10;4.07;;;16.90;72.60;;;;;;5088604;28;20557;-71
2023/03/17 09:35:38;;;;;;;4.80;3.50;;;17.30;70.10;;;;;;5088690;28;20904;-71
2023/03/17 09:38:05;;;;;;;6.80;4.27;;;17.90;66.30;;;;;;5088856;28;20433;-71
2023/03/17 09:40:38;;;;;;;6.00;3.70;;;18.20;65.20;;;;;;5087444;28;20468;-71
2023/03/17 09:43:30;;;;;;;3.93;3.10;;;18.30;63.70;;;;;;5088989;28;20536;-71
2023/03/17 09:46:06;;;;;;;4.93;3.10;;;18.70;61.30;;;;;;5088755;28;20944;-72
2023/03/17 09:48:51;;;;;;;3.90;3.30;;;18.70;59.60;;;;;;5088946;28;20412;-71
2023/03/17 09:51:18;;;;;;;7.63;4.47;;;19.10;57.00;;;;;;5087144;28;20501;-71
2023/03/17 09:53:53;;;;;;;8.33;4.57;;;19.10;56.20;;;;;;5088547;28;20415;-71
2023/03/17 09:56:19;;;;;;;7.30;3.50;;;19.90;55.70;;;;;;5088323;28;20430;-71
2023/03/17 09:58:53;;;;;;;9.77;3.97;;;20.40;53.80;;;;;;5088616;28;20416;-71
2023/03/17 10:01:19;;;;;;;4.90;3.70;;;20.60;51.90;;;;;;5088371;28;20426;-71
2023/03/17 10:03:46;;;;;;;3.80;3.37;;;21.00;52.40;;;;;;5088134;28;20464;-71
2023/03/17 10:06:32;;;;;;;3.40;2.80;;;21.60;51.50;;;;;;5087887;28;20220;-72
2023/03/17 10:09:21;;;;;;;5.50;3.30;;;21.70;50.40;;;;;;5087365;28;20404;-72
2023/03/17 10:12:02;;;;;;;5.83;3.30;;;21.70;49.20;;;;;;5086270;28;20476;-72
2023/03/17 10:14:41;;;;;;;4.70;3.30;;;21.30;47.20;;;;;;5087372;28;20411;-72
2023/03/17 10:17:16;;;;;;;5.70;3.87;;;21.10;49.30;;;;;;5087194;28;20415;-72
2023/03/17 10:19:41;;;;;;;4.40;3.17;;;21.50;47.70;;;;;;5087009;28;20440;-71
2023/03/17 10:22:10;;;;;;;6.17;3.63;;;21.70;47.50;;;;;;5087084;28;20423;-71
2023/03/17 10:24:41;;;;;;;4.90;3.00;;;22.00;48.40;;;;;;5087214;28;20198;-72
2023/03/17 10:27:12;;;;;;;8.80;3.03;;;22.30;48.00;;;;;;5087103;28;20431;-71
2023/03/17 10:29:39;;;;;;;5.50;3.00;;;22.10;47.30;;;;;;5087224;28;21063;-71
2023/03/17 10:32:10;;;;;;;7.30;3.00;;;22.00;48.20;;;;;;5087036;28;20962;-71
2023/03/17 10:34:36;;;;;;;4.20;3.00;;;22.40;49.00;;;;;;5087041;28;20431;-71
2023/03/17 10:37:16;;;;;;;4.43;3.10;;;22.40;48.10;;;;;;5085390;28;20889;-71
2023/03/17 10:39:54;;;;;;;8.70;3.67;;;22.40;48.30;;;;;;5086722;28;20955;-71
2023/03/17 10:42:24;;;;;;;4.30;3.37;;;21.90;47.00;;;;;;5085293;28;20468;-71
2023/03/17 10:44:55;;;;;;;3.80;2.80;;;21.60;47.90;;;;;;5086955;28;20501;-71
2023/03/17 10:47:34;;;;;;;4.70;3.10;;;21.70;47.40;;;;;;5085643;28;20443;-71
2023/03/17 10:50:21;;;;;;;4.53;3.50;;;22.20;49.00;;;;;;5087215;28;20432;-72
2023/03/17 10:52:52;;;;;;;9.80;4.00;;;22.50;48.40;;;;;;5087512;28;20465;-72
2023/03/17 10:55:21;;;;;;;8.10;3.60;;;22.90;46.90;;;;;;5087244;28;20432;-72
2023/03/17 10:58:14;;;;;;;9.23;3.77;;;23.00;46.90;;;;;;5085725;28;20416;-70
2023/03/17 11:00:54;;;;;;;8.43;3.47;;;22.90;45.80;;;;;;5077153;28;20457;-71
2023/03/17 11:03:26;;;;;;;4.77;3.00;;;22.50;45.80;;;;;;5087972;28;20466;-71
2023/03/17 11:06:09;;;;;;;6.60;3.40;;;22.60;47.10;;;;;;5087792;28;20448;-72
2023/03/17 11:08:53;;;;;;;6.27;3.87;;;22.30;46.50;;;;;;5087669;28;20460;-71
2023/03/17 11:11:36;;;;;;;9.37;3.60;;;22.30;47.50;;;;;;5087689;28;20928;-71
2023/03/17 11:14:10;;;;;;;8.80;3.60;;;22.20;47.90;;;;;;5087743;28;20412;-72
2023/03/17 11:16:39;;;;;;;7.40;4.00;;;22.30;48.60;;;;;;5087701;28;20412;-71
2023/03/17 11:19:12;;;;;;;5.50;3.93;;;22.00;46.40;;;;;;5087312;28;20521;-72
2023/03/17 11:21:53;;;;;;;4.10;3.37;;;22.20;47.80;;;;;;5087092;28;20446;-71
2023/03/17 11:24:32;;;;;;;5.83;3.70;;;22.80;47.70;;;;;;5086918;28;20558;-71
2023/03/17 11:27:17;;;;;;;4.70;3.40;;;22.90;47.20;;;;;;5085164;28;20538;-72
2023/03/17 11:29:56;;;;;;;5.17;3.50;;;22.80;48.10;;;;;;5086891;28;20442;-71
2023/03/17 11:32:27;;;;;;;6.40;3.53;;;23.20;48.20;;;;;;5087047;28;20409;-72
2023/03/17 11:35:11;;;;;;;6.07;3.33;;;23.20;47.50;;;;;;5086978;28;20409;-72
2023/03/17 11:38:17;;;;;;;5.33;3.03;;;23.40;48.40;;;;;;5086806;28;20439;-72
2023/03/17 11:41:02;;;;;;;8.17;3.27;;;23.50;48.90;;;;;;5088673;28;20557;-72
2023/03/17 11:44:04;;;;;;;7.90;3.10;;;24.00;49.70;;;;;;5090212;28;20481;-72
2023/03/17 11:46:45;;;;;;;5.47;3.27;;;23.90;47.90;;;;;;4990717;28;20497;-72
2023/03/17 11:49:13;;;;;;;6.20;3.00;;;24.00;48.10;;;;;;5082239;28;20454;-71
2023/03/17 11:52:15;;;;;;;3.33;2.63;;;24.20;48.80;;;;;;5090290;28;21044;-72
2023/03/17 11:54:52;;;;;;;14.30;3.60;;;24.40;48.50;;;;;;5088368;28;20446;-72
2023/03/17 11:57:43;;;;;;;3.90;2.77;;;24.30;47.80;;;;;;5090122;28;20404;-71
2023/03/17 12:00:22;;;;;;;7.30;3.63;;;24.30;48.00;;;;;;5090055;28;20861;-72
2023/03/17 12:02:56;;;;;;;8.30;3.00;;;23.70;48.40;;;;;;5089974;28;20546;-71
2023/03/17 12:05:25;;;;;;;5.87;3.07;;;23.50;47.90;;;;;;5089888;28;20513;-72
2023/03/17 12:08:19;;;;;;;4.37;2.60;;;23.50;48.20;;;;;;5089597;28;20477;-71
2023/03/17 12:10:49;;;;;;;4.87;2.80;;;23.20;48.30;;;;;;5088077;28;20464;-72
2023/03/17 12:13:28;;;;;;;7.20;2.53;;;23.10;48.20;;;;;;5089642;28;20420;-72
2023/03/17 12:16:03;;;;;;;6.40;2.70;;;22.90;49.20;;;;;;5089386;28;20509;-72
2023/03/17 12:18:41;;;;;;;4.93;2.30;;;22.70;48.60;;;;;;5090024;28;20785;-72
2023/03/17 12:21:43;;;;;;;5.23;2.37;;;22.70;48.90;;;;;;5089606;28;20448;-72
2023/03/17 12:24:21;;;;;;;4.87;2.50;;;22.80;50.50;;;;;;5089291;28;20486;-71
2023/03/17 12:27:10;;;;;;;3.67;2.73;;;23.10;49.90;;;;;;5089412;28;20412;-71
2023/03/17 12:30:02;;;;;;;3.40;2.93;;;23.20;50.60;;;;;;5089265;28;20434;-72
2023/03/17 12:32:39;;;;;;;6.60;2.53;;;23.40;48.90;;;;;;5089509;28;20418;-71
2023/03/17 12:35:30;;;;;;;7.80;2.83;;;23.50;49.90;;;;;;5087751;28;20509;-71
2023/03/17 12:37:59;;;;;;;5.60;2.60;;;23.40;48.80;;;;;;5087521;28;20448;-72
2023/03/17 12:40:32;;;;;;;8.30;3.53;;;23.40;49.30;;;;;;5089123;28;20467;-72
2023/03/17 12:43:08;;;;;;;6.97;2.50;;;23.40;49.10;;;;;;5089298;28;20464;-71
2023/03/17 12:45:45;;;;;;;3.10;2.43;;;23.30;49.40;;;;;;5089086;28;20927;-71
2023/03/17 12:48:20;;;;;;;6.13;3.30;;;23.30;49.80;;;;;;5089184;28;20912;-72
2023/03/17 12:51:30;;;;;;;5.23;3.03;;;23.30;48.60;;;;;;5089507;28;20452;-71
2023/03/17 12:53:58;;;;;;;8.70;2.87;;;23.00;50.00;;;;;;5080300;28;20995;-71
2023/03/17 12:56:30;;;;;;;8.10;2.60;;;22.80;49.50;;;;;;5089359;28;20518;-71
2023/03/17 12:59:04;;;;;;;4.83;2.50;;;22.80;49.60;;;;;;5089514;28;20422;-72
2023/03/17 13:01:37;;;;;;;4.13;2.27;;;22.70;49.30;;;;;;5089433;28;20469;-72
2023/03/17 13:04:11;;;;;;;6.07;2.70;;;22.60;49.50;;;;;;5089017;28;20464;-71